Fort Knox, Kentucky
Current Conditions -  °F | °C
As of 6:58 PM on Wednesday 22 Oct 2014 (Local Time) from KFTK Reporting Station
Clear Clear  
Wind Chill: 55°   Ceiling: Unl
Heat Index: 55°   Visibility: 10mi
Dew Point: 42°   Wind: 5mph
Humidity: 61%   Direction: 40°NE
Pressure: 30.22"   Gusts: NA
Location:  37.88°N, 85.96°W
Report Text: KFTK 222258Z 04004KT 10SM CLR 13/05 A3022 RMK AO2A SLP238 T01260053
Loading
Personal Weather Stations






























Interactive Weather Map
Tropical Storm Tracking
New forecast layout! Learn more

10-Day Weather Forecast

Advertisements
Track Severe Weather on mobile